ěÝzenÝ letovÚho provozu ╚eskÚ republiky
Letiste: LKMT Aktualizace: 30.05.2020 03:30:18  UTC
 METAR LKMT 30.05. 03:30 ...
METAR LKMT 300330Z 17003KT CAVOK 04/01 Q1021 NOSIG RMK REG QNH 1018=
 TAF LKMT 29.05. 23:00 ...
TAF LKMT 292300Z 3000/3106 01007KT CAVOK      TEMPO 3000/3004 VRB02KT      TEMPO 3008/3018 02012G24KT 9999 -SHRA FEW027TCU BKN030      BECMG 3103/3105 34010G20KT 8000 -RA SCT015 BKN025=